createdAt,value
2023-02-22T00:00:06.325Z,78.42
2023-02-22T00:03:35.020Z,77.96
2023-02-22T00:06:56.238Z,78.14
2023-02-22T00:10:27.060Z,78.40
2023-02-22T00:13:34.229Z,78.29
2023-02-22T00:17:02.647Z,78.30
2023-02-22T00:20:19.400Z,78.33
2023-02-22T00:23:47.528Z,78.42
2023-02-22T00:27:06.043Z,78.61
2023-02-22T00:30:24.399Z,78.63
2023-02-22T00:33:33.686Z,78.73
2023-02-22T00:36:48.434Z,78.86
2023-02-22T00:39:54.747Z,78.90
2023-02-22T00:43:06.376Z,79.03
2023-02-22T00:46:30.518Z,78.97
2023-02-22T00:49:42.671Z,79.14
2023-02-22T00:52:58.328Z,79.18
2023-02-22T00:56:03.927Z,79.24
2023-02-22T00:59:27.427Z,79.26
2023-02-22T01:02:51.965Z,79.34
2023-02-22T01:06:00.482Z,79.41
2023-02-22T01:09:23.497Z,79.28
2023-02-22T01:12:30.465Z,79.43
2023-02-22T01:15:45.777Z,79.60
2023-02-22T01:19:12.712Z,79.91
2023-02-22T01:22:35.214Z,80.09
2023-02-22T01:25:44.614Z,80.08
2023-02-22T01:29:04.392Z,80.11
2023-02-22T01:32:26.992Z,80.40
2023-02-22T01:35:50.199Z,80.31
2023-02-22T01:39:10.355Z,80.08
2023-02-22T01:42:33.426Z,80.11
2023-02-22T01:45:52.322Z,80.28
2023-02-22T01:49:21.489Z,80.08
2023-02-22T01:52:28.786Z,79.81
2023-02-22T01:55:35.927Z,79.86
2023-02-22T01:58:52.262Z,80.04
2023-02-22T02:01:56.916Z,79.92
2023-02-22T02:05:08.464Z,79.64
2023-02-22T02:08:52.622Z,79.92
2023-02-22T02:11:56.162Z,79.76
2023-02-22T02:15:25.972Z,79.90
2023-02-22T02:18:30.079Z,79.80
2023-02-22T02:21:42.190Z,79.82
2023-02-22T02:25:06.822Z,80.04
2023-02-22T02:28:34.638Z,80.18
2023-02-22T02:32:06.176Z,80.10
2023-02-22T02:35:24.728Z,80.46
2023-02-22T02:39:07.248Z,80.72
2023-02-22T02:42:15.690Z,80.71
2023-02-22T02:45:26.469Z,80.49
2023-02-22T02:48:32.784Z,80.56
2023-02-22T02:51:40.202Z,80.85
2023-02-22T02:54:45.867Z,81.08
2023-02-22T02:57:48.804Z,80.98
2023-02-22T03:00:55.785Z,81.10
2023-02-22T03:04:20.397Z,81.34
2023-02-22T03:07:26.133Z,81.01
2023-02-22T03:10:44.485Z,80.90
2023-02-22T03:13:47.372Z,80.85
2023-02-22T03:16:58.547Z,81.03
2023-02-22T03:20:31.911Z,81.06
2023-02-22T03:23:48.227Z,81.13
2023-02-22T03:27:04.662Z,81.29
2023-02-22T03:30:12.443Z,81.54
2023-02-22T03:33:21.031Z,81.52
2023-02-22T03:36:35.828Z,81.57
2023-02-22T03:39:39.056Z,81.63
2023-02-22T03:42:48.939Z,81.47
2023-02-22T03:45:53.329Z,81.57
2023-02-22T03:49:03.811Z,81.55
2023-02-22T03:52:08.111Z,81.59
2023-02-22T03:55:12.658Z,81.69
2023-02-22T03:58:16.528Z,82.14
2023-02-22T04:01:20.181Z,81.85
2023-02-22T04:04:25.359Z,81.94
2023-02-22T04:07:28.352Z,81.83
2023-02-22T04:10:31.878Z,81.94
2023-02-22T04:13:34.901Z,82.25
2023-02-22T04:16:37.885Z,82.38
2023-02-22T04:19:41.040Z,82.24
2023-02-22T04:22:43.977Z,82.31
2023-02-22T04:25:46.988Z,82.38
2023-02-22T04:28:49.911Z,82.30
2023-02-22T04:31:53.160Z,82.53
2023-02-22T04:34:56.238Z,82.45
2023-02-22T04:37:59.301Z,82.10
2023-02-22T04:41:02.504Z,82.54
2023-02-22T04:44:05.674Z,82.52
2023-02-22T04:47:08.693Z,82.35
2023-02-22T04:50:12.763Z,83.76
2023-02-22T04:53:15.934Z,83.85
2023-02-22T04:56:58.442Z,84.40
2023-02-22T05:00:40.516Z,83.69
2023-02-22T05:04:08.687Z,84.43
2023-02-22T05:07:35.796Z,84.71
2023-02-22T05:10:43.370Z,84.92
2023-02-22T05:14:04.466Z,85.57
2023-02-22T05:17:07.549Z,85.81
2023-02-22T05:20:19.780Z,85.90
2023-02-22T05:23:22.912Z,86.27
2023-02-22T05:26:26.113Z,86.52
2023-02-22T05:29:29.205Z,86.80
2023-02-22T05:32:32.282Z,87.30
2023-02-22T05:35:37.237Z,86.45
2023-02-22T05:38:44.876Z,86.60
2023-02-22T05:41:48.186Z,86.64
2023-02-22T05:44:51.273Z,86.44
2023-02-22T05:47:58.199Z,86.76
2023-02-22T05:51:01.188Z,87.29
2023-02-22T05:54:04.480Z,86.91
2023-02-22T05:57:10.608Z,87.44
2023-02-22T06:00:23.285Z,87.29
2023-02-22T06:03:26.536Z,87.72
2023-02-22T06:06:29.693Z,87.52
2023-02-22T06:09:32.810Z,87.93
2023-02-22T06:12:35.945Z,87.45
2023-02-22T06:15:53.848Z,87.45
2023-02-22T06:18:56.875Z,87.10
2023-02-22T06:22:03.356Z,86.80
2023-02-22T06:25:07.123Z,86.74
2023-02-22T06:28:11.041Z,87.06
2023-02-22T06:31:14.255Z,87.21
2023-02-22T06:34:17.975Z,87.23
2023-02-22T06:37:21.127Z,87.80
2023-02-22T06:40:24.313Z,87.18
2023-02-22T06:43:27.325Z,86.67
2023-02-22T06:46:30.396Z,86.87
2023-02-22T06:49:33.436Z,86.40
2023-02-22T06:52:36.485Z,86.35
2023-02-22T06:55:39.488Z,86.26
2023-02-22T06:58:42.510Z,86.17
2023-02-22T07:01:45.502Z,86.00
2023-02-22T07:04:48.588Z,85.71
2023-02-22T07:07:53.598Z,85.61
2023-02-22T07:10:56.891Z,85.47
2023-02-22T07:13:59.913Z,85.24
2023-02-22T07:17:03.451Z,85.19
2023-02-22T07:20:06.943Z,84.96
2023-02-22T07:23:10.007Z,84.69
2023-02-22T07:26:14.313Z,84.81
2023-02-22T07:29:17.465Z,84.50
2023-02-22T07:32:20.546Z,84.09
2023-02-22T07:35:31.918Z,83.99
2023-02-22T07:38:35.131Z,83.84
2023-02-22T07:41:40.560Z,83.44
2023-02-22T07:44:49.607Z,82.74
2023-02-22T07:47:53.263Z,82.86
2023-02-22T07:50:57.320Z,82.87
2023-02-22T07:54:00.393Z,82.20
2023-02-22T07:57:03.780Z,81.74
2023-02-22T08:00:07.418Z,81.69
2023-02-22T08:03:15.292Z,81.27
2023-02-22T08:06:18.433Z,80.79
2023-02-22T08:09:21.463Z,80.77
2023-02-22T08:12:24.514Z,80.94
2023-02-22T08:15:28.998Z,79.24
2023-02-22T08:18:32.148Z,78.97
2023-02-22T08:21:35.108Z,79.02
2023-02-22T08:24:38.253Z,79.06
2023-02-22T08:27:42.010Z,77.57
2023-02-22T08:30:45.002Z,78.59
2023-02-22T08:33:49.587Z,77.88
2023-02-22T08:36:52.990Z,77.68
2023-02-22T08:39:56.303Z,77.42
2023-02-22T08:42:59.827Z,76.95
2023-02-22T08:46:02.865Z,76.17
2023-02-22T08:49:10.713Z,76.51
2023-02-22T08:52:13.711Z,76.24
2023-02-22T08:55:19.897Z,76.37
2023-02-22T08:58:40.408Z,76.15
2023-02-22T09:02:10.945Z,74.60
2023-02-22T09:05:26.309Z,75.24
2023-02-22T09:08:29.449Z,74.65
2023-02-22T09:11:32.436Z,74.06
2023-02-22T09:14:35.493Z,73.75
2023-02-22T09:17:38.625Z,73.90
2023-02-22T09:20:42.123Z,74.14
2023-02-22T09:23:50.132Z,71.21
2023-02-22T09:27:10.624Z,70.96
2023-02-22T09:30:34.884Z,69.00
2023-02-22T09:33:39.048Z,68.44
2023-02-22T09:36:46.752Z,68.99
2023-02-22T09:39:51.426Z,67.15
2023-02-22T09:43:23.185Z,65.54
2023-02-22T09:46:29.948Z,63.98
2023-02-22T09:49:51.885Z,64.67
2023-02-22T09:53:53.397Z,63.25
2023-02-22T09:57:02.604Z,64.25
2023-02-22T10:00:22.214Z,63.01
2023-02-22T10:03:30.005Z,63.94
2023-02-22T10:06:34.859Z,63.33
2023-02-22T10:09:45.021Z,62.41
2023-02-22T10:12:56.980Z,59.80
2023-02-22T10:16:03.111Z,60.38
2023-02-22T10:19:12.235Z,59.99
2023-02-22T10:22:52.794Z,59.66
2023-02-22T10:26:04.722Z,59.72
2023-02-22T10:29:07.475Z,60.17
2023-02-22T10:32:45.644Z,59.35
2023-02-22T10:35:49.110Z,60.31
2023-02-22T10:38:58.608Z,59.78
2023-02-22T10:42:09.939Z,57.92
2023-02-22T10:45:50.399Z,58.32
2023-02-22T10:49:03.779Z,58.97
2023-02-22T10:52:17.375Z,59.41
2023-02-22T10:55:20.471Z,58.95
2023-02-22T10:58:24.714Z,58.42
2023-02-22T11:01:37.742Z,56.75
2023-02-22T11:04:55.884Z,57.82
2023-02-22T11:08:15.983Z,57.06
2023-02-22T11:11:24.883Z,58.64
2023-02-22T11:14:30.040Z,58.53
2023-02-22T11:17:34.636Z,59.68
2023-02-22T11:20:39.888Z,58.46
2023-02-22T11:23:45.089Z,59.32
2023-02-22T11:26:59.790Z,59.22
2023-02-22T11:30:18.627Z,59.46
2023-02-22T11:33:25.906Z,57.95
2023-02-22T11:36:40.596Z,56.58
2023-02-22T11:39:45.570Z,58.48
2023-02-22T11:43:16.198Z,57.13
2023-02-22T11:46:23.366Z,59.07
2023-02-22T11:49:34.486Z,58.26
2023-02-22T11:52:46.299Z,59.03
2023-02-22T11:56:06.163Z,58.89
2023-02-22T11:59:12.256Z,57.96
2023-02-22T12:02:51.909Z,58.84
2023-02-22T12:06:08.359Z,59.70
2023-02-22T12:09:33.254Z,58.61
2023-02-22T12:12:47.419Z,58.57
2023-02-22T12:16:16.684Z,59.81
2023-02-22T12:19:41.927Z,59.73
2023-02-22T12:22:55.558Z,58.72
2023-02-22T12:26:15.025Z,59.42
2023-02-22T12:29:39.661Z,60.26
2023-02-22T12:32:48.380Z,60.26
2023-02-22T12:35:58.600Z,59.79
2023-02-22T12:39:11.081Z,58.35
2023-02-22T12:42:42.827Z,58.37
2023-02-22T12:46:00.579Z,57.88
2023-02-22T12:49:24.950Z,58.32
2023-02-22T12:52:57.960Z,58.58
2023-02-22T12:56:19.419Z,59.55
2023-02-22T12:59:32.026Z,59.47
2023-02-22T13:03:17.915Z,59.57
2023-02-22T13:06:48.713Z,60.36
2023-02-22T13:09:59.667Z,58.98
2023-02-22T13:13:17.323Z,58.31
2023-02-22T13:16:32.861Z,57.74
2023-02-22T13:19:42.046Z,58.04
2023-02-22T13:23:04.493Z,57.66
2023-02-22T13:26:19.796Z,58.19
2023-02-22T13:29:29.988Z,58.57
2023-02-22T13:32:58.924Z,58.75
2023-02-22T13:36:01.874Z,57.79
2023-02-22T13:39:21.960Z,57.79
2023-02-22T13:42:50.481Z,58.42
2023-02-22T13:46:39.150Z,58.53
2023-02-22T13:49:59.973Z,58.15
2023-02-22T13:53:10.583Z,58.34
2023-02-22T13:56:14.899Z,58.60
2023-02-22T13:59:37.491Z,58.59
2023-02-22T14:03:08.301Z,59.37
2023-02-22T14:06:39.039Z,59.18
2023-02-22T14:10:30.846Z,57.52
2023-02-22T14:14:38.084Z,58.86
2023-02-22T14:18:03.397Z,58.39
2023-02-22T14:21:11.439Z,58.96
2023-02-22T14:24:16.757Z,59.16
2023-02-22T14:27:20.191Z,59.46
2023-02-22T14:31:29.437Z,59.36
2023-02-22T14:34:58.372Z,58.81
2023-02-22T14:38:02.462Z,59.91
2023-02-22T14:41:09.145Z,60.69
2023-02-22T14:44:13.824Z,60.94
2023-02-22T14:47:22.838Z,61.43
2023-02-22T14:50:30.309Z,60.93
2023-02-22T14:53:51.776Z,60.58
2023-02-22T14:57:15.362Z,60.40
2023-02-22T15:00:31.219Z,61.59
2023-02-22T15:03:38.320Z,61.85
2023-02-22T15:06:41.299Z,62.14
2023-02-22T15:09:48.450Z,62.19
2023-02-22T15:13:09.124Z,62.30
2023-02-22T15:16:14.555Z,62.51
2023-02-22T15:20:25.990Z,62.24
2023-02-22T15:24:04.158Z,62.97
2023-02-22T15:27:15.287Z,62.77
2023-02-22T15:30:26.857Z,63.25
2023-02-22T15:33:34.346Z,63.44
2023-02-22T15:36:37.500Z,63.19
2023-02-22T15:39:44.124Z,63.21
2023-02-22T15:43:09.069Z,63.08
2023-02-22T15:46:18.966Z,63.27
2023-02-22T15:49:40.384Z,63.81
2023-02-22T15:53:07.854Z,63.89
2023-02-22T15:56:15.550Z,63.75
2023-02-22T15:59:20.802Z,63.78
2023-02-22T16:02:40.183Z,63.84
2023-02-22T16:05:50.169Z,64.14
2023-02-22T16:08:55.886Z,64.32
2023-02-22T16:12:11.369Z,64.54
2023-02-22T16:15:17.341Z,64.69
2023-02-22T16:18:33.783Z,64.77
2023-02-22T16:21:53.613Z,64.88
2023-02-22T16:25:18.555Z,65.15
2023-02-22T16:28:35.764Z,65.65
2023-02-22T16:31:40.289Z,65.80
2023-02-22T16:34:43.560Z,65.84
2023-02-22T16:37:52.649Z,65.95
2023-02-22T16:40:58.533Z,66.38
2023-02-22T16:44:01.997Z,66.26
2023-02-22T16:47:04.996Z,66.59
2023-02-22T16:50:08.454Z,66.56
2023-02-22T16:53:12.101Z,67.10
2023-02-22T16:56:18.107Z,67.68
2023-02-22T16:59:21.511Z,67.90
2023-02-22T17:02:24.667Z,67.61
2023-02-22T17:05:28.037Z,68.29
2023-02-22T17:08:32.536Z,67.47
2023-02-22T17:11:36.986Z,67.48
2023-02-22T17:14:41.188Z,68.25
2023-02-22T17:17:44.122Z,68.13
2023-02-22T17:20:47.060Z,68.03
2023-02-22T17:24:47.544Z,68.21
2023-02-22T17:28:08.064Z,68.72
2023-02-22T17:31:31.513Z,69.00
2023-02-22T17:34:41.045Z,69.76
2023-02-22T17:37:53.848Z,69.84
2023-02-22T17:41:16.800Z,69.97
2023-02-22T17:44:43.681Z,70.77
2023-02-22T17:47:55.394Z,71.13
2023-02-22T17:51:19.920Z,71.40
2023-02-22T17:54:31.450Z,71.32
2023-02-22T17:57:50.614Z,71.32
2023-02-22T18:00:59.756Z,71.73
2023-02-22T18:04:35.155Z,71.73
2023-02-22T18:07:48.739Z,72.49
2023-02-22T18:10:59.051Z,72.43
2023-02-22T18:14:10.172Z,73.01
2023-02-22T18:17:13.236Z,73.78
2023-02-22T18:20:20.343Z,73.10
2023-02-22T18:23:27.170Z,73.11
2023-02-22T18:26:30.412Z,73.20
2023-02-22T18:29:34.054Z,73.07
2023-02-22T18:32:37.030Z,73.10
2023-02-22T18:35:42.994Z,75.20
2023-02-22T18:38:45.946Z,74.34
2023-02-22T18:41:48.958Z,73.36
2023-02-22T18:44:53.084Z,73.55
2023-02-22T18:47:56.178Z,73.26
2023-02-22T18:51:05.853Z,73.71
2023-02-22T18:54:08.927Z,73.48
2023-02-22T18:57:13.094Z,73.53
2023-02-22T19:00:18.889Z,73.95
2023-02-22T19:03:21.907Z,74.15
2023-02-22T19:06:24.984Z,74.14
2023-02-22T19:09:27.993Z,74.03
2023-02-22T19:12:31.707Z,74.01
2023-02-22T19:15:34.743Z,74.26
2023-02-22T19:18:38.010Z,74.35
2023-02-22T19:21:41.307Z,74.54
2023-02-22T19:24:45.369Z,74.56
2023-02-22T19:27:48.203Z,74.60
2023-02-22T19:30:51.354Z,74.77
2023-02-22T19:33:54.353Z,74.77
2023-02-22T19:37:00.801Z,74.67
2023-02-22T19:40:07.064Z,75.87
2023-02-22T19:43:10.551Z,75.56
2023-02-22T19:46:13.787Z,75.18
2023-02-22T19:49:16.821Z,75.05
2023-02-22T19:52:19.848Z,75.15
2023-02-22T19:55:22.849Z,75.29
2023-02-22T19:58:25.908Z,75.22
2023-02-22T20:01:33.531Z,75.05
2023-02-22T20:04:37.421Z,75.51
2023-02-22T20:07:40.531Z,75.71
2023-02-22T20:10:43.466Z,76.08
2023-02-22T20:13:46.854Z,75.94
2023-02-22T20:17:11.905Z,76.19
2023-02-22T20:20:30.676Z,76.66
2023-02-22T20:23:34.136Z,76.39
2023-02-22T20:26:39.028Z,76.29
2023-02-22T20:29:42.359Z,76.79
2023-02-22T20:32:45.385Z,76.94
2023-02-22T20:35:48.770Z,76.57
2023-02-22T20:38:54.307Z,77.41
2023-02-22T20:42:00.701Z,77.25
2023-02-22T20:45:06.170Z,76.93
2023-02-22T20:48:09.214Z,76.76
2023-02-22T20:51:14.687Z,76.97
2023-02-22T20:54:18.088Z,77.18
2023-02-22T20:57:20.912Z,77.61
2023-02-22T21:00:23.879Z,77.73
2023-02-22T21:03:26.747Z,77.99
2023-02-22T21:06:30.986Z,77.81
2023-02-22T21:09:34.011Z,77.42
2023-02-22T21:12:36.840Z,77.41
2023-02-22T21:15:43.568Z,77.74
2023-02-22T21:18:46.552Z,78.18
2023-02-22T21:21:49.466Z,78.26
2023-02-22T21:24:53.428Z,77.74
2023-02-22T21:27:56.308Z,78.39
2023-02-22T21:31:05.893Z,78.66
2023-02-22T21:34:12.295Z,78.26
2023-02-22T21:37:18.153Z,77.69
2023-02-22T21:40:21.047Z,77.88
2023-02-22T21:43:25.325Z,77.70
2023-02-22T21:46:29.549Z,77.90
2023-02-22T21:49:32.474Z,78.11
2023-02-22T21:52:35.403Z,78.70
2023-02-22T21:55:38.454Z,80.66
2023-02-22T21:58:44.841Z,80.33
2023-02-22T22:01:55.951Z,79.31
2023-02-22T22:04:59.246Z,80.56
2023-02-22T22:08:02.126Z,79.55
2023-02-22T22:11:05.899Z,79.50
2023-02-22T22:14:10.727Z,79.40
2023-02-22T22:17:13.729Z,79.53
2023-02-22T22:20:17.140Z,79.75
2023-02-22T22:23:20.027Z,79.53
2023-02-22T22:26:24.872Z,79.98
2023-02-22T22:29:28.750Z,79.71
2023-02-22T22:32:32.371Z,79.93
2023-02-22T22:35:38.685Z,80.22
2023-02-22T22:38:43.138Z,80.05
2023-02-22T22:41:46.099Z,80.04
2023-02-22T22:44:50.497Z,80.19
2023-02-22T22:47:53.495Z,80.47
2023-02-22T22:51:06.604Z,80.52
2023-02-22T22:54:10.512Z,80.43
2023-02-22T22:57:13.708Z,80.69
2023-02-22T23:00:26.943Z,80.22
2023-02-22T23:03:30.256Z,80.41
2023-02-22T23:06:36.559Z,80.34
2023-02-22T23:09:41.652Z,80.63
2023-02-22T23:12:44.930Z,80.62
2023-02-22T23:15:47.891Z,80.52
2023-02-22T23:18:51.541Z,80.91
2023-02-22T23:21:56.064Z,80.76
2023-02-22T23:25:00.035Z,81.25
2023-02-22T23:28:03.149Z,81.08
2023-02-22T23:31:08.579Z,81.28
2023-02-22T23:34:11.513Z,81.58
2023-02-22T23:37:14.482Z,81.53
2023-02-22T23:40:18.398Z,81.48
2023-02-22T23:43:25.566Z,81.55
2023-02-22T23:46:32.909Z,81.61
2023-02-22T23:49:37.171Z,81.79
2023-02-22T23:52:40.078Z,82.50
2023-02-22T23:55:44.322Z,82.95
2023-02-22T23:58:50.483Z,82.30
